createdAt,value
2022-11-17T09:31:24.004Z,2.50
2022-11-17T09:34:25.736Z,2.42
2022-11-17T09:37:28.125Z,2.80
2022-11-17T09:40:36.363Z,2.67
2022-11-17T09:43:46.044Z,2.70
2022-11-17T09:47:03.034Z,2.42
2022-11-17T09:50:13.546Z,2.35
2022-11-17T09:53:31.323Z,2.45
2022-11-17T09:56:34.544Z,1.90
2022-11-17T09:59:37.193Z,1.88
2022-11-17T10:02:38.715Z,1.77
2022-11-17T10:05:40.518Z,2.22
2022-11-17T10:09:25.118Z,2.00
2022-11-17T10:12:36.680Z,1.80
2022-11-17T10:15:46.146Z,1.70
2022-11-17T10:18:47.661Z,1.80
2022-11-17T10:21:53.201Z,1.80
2022-11-17T10:24:55.464Z,1.73
2022-11-17T10:27:57.015Z,1.70
2022-11-17T10:31:00.754Z,2.15
2022-11-17T10:34:02.299Z,1.77
2022-11-17T10:37:28.900Z,1.60
2022-11-17T10:40:48.634Z,1.60
2022-11-17T10:44:21.810Z,1.67
2022-11-17T10:47:40.423Z,1.60
2022-11-17T10:50:58.555Z,1.60
2022-11-17T10:54:01.864Z,1.20
2022-11-17T10:57:09.455Z,1.40
2022-11-17T11:00:32.847Z,1.45
2022-11-17T11:03:35.324Z,1.60
2022-11-17T11:06:37.392Z,1.80
2022-11-17T11:09:58.298Z,1.50
2022-11-17T11:13:17.886Z,1.60
2022-11-17T11:16:19.922Z,1.50
2022-11-17T11:19:22.037Z,1.40
2022-11-17T11:22:57.667Z,1.65
2022-11-17T11:26:44.275Z,1.25
2022-11-17T11:30:19.247Z,1.80
2022-11-17T11:33:23.723Z,1.63
2022-11-17T11:36:27.875Z,1.75
2022-11-17T11:39:44.959Z,1.70
